Terminal Aerodrome Forecast
Issued by NWS

Home | Current Version | Previous Version | Text Only | Print | Product List | Glossary On
Versions: 1 2 3 4 5 6 7 8 9 10 11 12 13 14 15 16 17 18 19 20
000
FTUS43 KICT 181329 AAA
TAFCNU
TAF AMD
KCNU 181329Z 1813/1912 17004KT 1SM BR SCT002 BKN200
      TEMPO 1814/1816 1/2SM FG BKN002
     FM181600 17005KT P6SM BKN025
     FM181700 17006KT P6SM BKN090
     FM181800 18007KT P6SM BKN040
     FM190400 16005KT 5SM -DZ BR OVC015
     FM190600 16004KT 2SM -DZ BR OVC008
     FM190800 16004KT 1SM -DZ BR OVC003=

USA.gov is the U.S. government's official web portal to all federal, state and local government web resources and services.